Time;durP1;ratioP1;P1;durP2;ratioP2;P2;SDS_P1;SDS_P2;PMS_P1;PMS_P2;Temp;Humidity;BMP_temperature;BMP_pressure;BME280_temperature;BME280_humidity;BME280_pressure;Samples;Min_cycle;Max_cycle;Signal;HPM_P1;HPM_P2
2021/06/11 00:02:14;;;;;;;3.35;1.73;;;;;;;23.42;49.81;101953.97;5072315;28;20094;-57
2021/06/11 00:04:39;;;;;;;3.35;1.70;;;;;;;23.42;49.97;101948.66;5073261;28;20024;-57
2021/06/11 00:07:04;;;;;;;3.67;1.80;;;;;;;23.41;49.73;101954.94;5073114;28;20357;-56
2021/06/11 00:09:29;;;;;;;2.80;1.50;;;;;;;23.40;49.93;101950.63;5072075;28;20029;-57
2021/06/11 00:11:55;;;;;;;3.22;1.50;;;;;;;23.41;49.91;101954.09;5072986;28;20032;-57
2021/06/11 00:14:21;;;;;;;3.28;1.88;;;;;;;23.41;49.99;101951.44;5072793;28;20081;-57
2021/06/11 00:16:47;;;;;;;3.45;1.73;;;;;;;23.40;49.85;101957.72;5072224;28;20028;-57
2021/06/11 00:19:12;;;;;;;2.92;1.67;;;;;;;23.40;50.05;101955.06;5072222;28;20510;-58
2021/06/11 00:21:40;;;;;;;3.57;1.60;;;;;;;23.40;49.71;101952.41;5072593;28;20040;-57
2021/06/11 00:24:06;;;;;;;3.22;1.60;;;;;;;23.38;49.94;101957.88;5071655;28;20273;-57
2021/06/11 00:26:31;;;;;;;3.78;1.70;;;;;;;23.39;50.26;101956.06;5071499;28;20055;-56
2021/06/11 00:28:56;;;;;;;4.03;1.70;;;;;;;23.38;49.87;101957.88;5072630;28;20343;-57
2021/06/11 00:31:24;;;;;;;2.80;1.67;;;;;;;23.39;49.83;101958.72;5071594;28;20415;-58
2021/06/11 00:33:50;;;;;;;2.60;1.42;;;;;;;23.38;49.87;101957.88;5072398;28;20035;-56
2021/06/11 00:36:15;;;;;;;3.30;1.85;;;;;;;23.38;49.98;101957.88;5072231;28;20012;-57
2021/06/11 00:38:41;;;;;;;4.03;1.60;;;;;;;23.38;49.99;101957.88;5071517;28;20051;-57
2021/06/11 00:41:09;;;;;;;4.03;1.85;;;;;;;23.37;49.96;101958.84;5071690;28;20284;-56
2021/06/11 00:43:34;;;;;;;3.30;1.77;;;;;;;23.37;49.84;101961.53;5072575;28;20051;-56
2021/06/11 00:45:59;;;;;;;3.13;1.80;;;;;;;23.36;49.85;101952.69;5071712;28;20044;-57
2021/06/11 00:48:27;;;;;;;2.97;1.38;;;;;;;23.36;49.96;101958.00;5071972;28;20032;-58
2021/06/11 00:50:52;;;;;;;3.10;1.70;;;;;;;23.36;49.95;101960.66;5071673;28;20031;-57
2021/06/11 00:53:18;;;;;;;3.17;1.80;;;;;;;23.34;49.80;101956.47;5072220;28;20029;-57
2021/06/11 00:55:44;;;;;;;2.80;1.40;;;;;;;23.34;50.08;101951.97;5072231;28;20361;-58
2021/06/11 00:58:15;;;;;;;2.38;1.30;;;;;;;23.35;50.02;101952.81;5071069;28;20419;-58
2021/06/11 01:00:40;;;;;;;3.22;1.58;;;;;;;23.34;50.15;101949.31;5072270;28;20024;-58
2021/06/11 01:03:06;;;;;;;3.80;1.80;;;;;;;23.34;49.87;101956.47;5071687;28;20426;-57
2021/06/11 01:05:32;;;;;;;2.47;1.48;;;;;;;23.32;49.85;101956.59;5071663;28;20545;-57
2021/06/11 01:07:58;;;;;;;3.17;1.73;;;;;;;23.34;49.87;101951.16;5071926;28;20047;-57
2021/06/11 01:10:24;;;;;;;2.83;1.50;;;;;;;23.32;49.75;101945.09;5071507;28;20040;-57
2021/06/11 01:12:52;;;;;;;2.03;1.25;;;;;;;23.33;49.93;101942.28;5071296;28;20100;-58
2021/06/11 01:15:17;;;;;;;2.80;1.55;;;;;;;23.31;49.72;101946.09;5071753;28;20021;-58
2021/06/11 01:17:44;;;;;;;2.65;1.50;;;;;;;23.31;49.77;101949.56;5071923;28;20027;-58
2021/06/11 01:20:11;;;;;;;3.10;1.60;;;;;;;23.31;49.79;101952.25;5071083;28;20032;-57
2021/06/11 01:23:01;;;;;;;2.95;1.40;;;;;;;23.32;49.88;101947.75;5071973;28;20108;-57
2021/06/11 01:25:56;;;;;;;3.10;1.40;;;;;;;23.30;49.79;101950.53;5071974;28;20035;-58
2021/06/11 01:28:24;;;;;;;2.50;1.50;;;;;;;23.31;49.91;101954.06;5071105;28;20035;-58
2021/06/11 01:30:50;;;;;;;3.20;1.70;;;;;;;23.29;49.74;101950.66;5071967;28;20025;-56
2021/06/11 01:33:18;;;;;;;3.38;1.80;;;;;;;23.27;49.60;101945.47;5071049;28;20036;-57
2021/06/11 01:35:48;;;;;;;3.00;1.63;;;;;;;23.29;49.74;101946.22;5071941;28;20025;-57
2021/06/11 01:38:19;;;;;;;3.45;1.73;;;;;;;23.28;49.60;101951.66;5071648;28;20020;-58
2021/06/11 01:40:46;;;;;;;2.10;1.30;;;;;;;23.27;49.62;101944.66;5071037;28;20020;-57
2021/06/11 01:43:13;;;;;;;3.20;1.60;;;;;;;23.27;49.79;101949.97;5071508;28;20032;-57
2021/06/11 01:45:38;;;;;;;2.40;1.40;;;;;;;23.27;49.69;101949.97;5071884;28;20025;-58
2021/06/11 01:48:04;;;;;;;2.53;1.42;;;;;;;23.27;50.07;101949.97;5070767;28;20031;-58
2021/06/11 01:50:35;;;;;;;3.25;1.65;;;;;;;23.27;49.60;101950.81;5071602;28;20368;-57
2021/06/11 01:53:02;;;;;;;3.78;1.70;;;;;;;23.24;49.58;101951.09;5073429;28;20085;-57
2021/06/11 01:55:29;;;;;;;3.20;1.50;;;;;;;23.25;49.69;101955.41;5074377;28;20472;-57
2021/06/11 01:57:57;;;;;;;3.70;1.60;;;;;;;23.26;49.75;101945.66;5074997;28;20419;-57
2021/06/11 02:00:23;;;;;;;3.13;1.60;;;;;;;23.25;49.42;101952.75;5074681;28;20093;-57
2021/06/11 02:02:50;;;;;;;3.47;1.60;;;;;;;23.26;49.87;101953.63;5074274;28;20021;-57
2021/06/11 02:05:16;;;;;;;3.05;1.65;;;;;;;23.26;49.62;101943.00;5074874;28;20058;-57
2021/06/11 02:07:44;;;;;;;3.00;1.60;;;;;;;23.25;49.77;101941.28;5075130;28;20376;-57
2021/06/11 02:10:11;;;;;;;2.90;1.45;;;;;;;23.24;49.62;101940.47;5074009;28;20051;-57
2021/06/11 02:12:37;;;;;;;3.42;1.65;;;;;;;23.24;49.73;101940.47;5075240;28;20024;-57
2021/06/11 02:15:08;;;;;;;2.70;1.55;;;;;;;23.24;49.66;101940.47;5074725;28;20510;-57
2021/06/11 02:17:40;;;;;;;3.03;1.38;;;;;;;23.24;49.69;101943.13;5074368;28;20104;-57
2021/06/11 02:20:09;;;;;;;3.17;1.58;;;;;;;23.23;49.68;101935.28;5074614;28;20039;-57
2021/06/11 02:22:37;;;;;;;2.33;1.40;;;;;;;23.23;49.58;101938.75;5074493;28;20033;-57
2021/06/11 02:25:03;;;;;;;3.35;1.55;;;;;;;23.22;49.70;101930.91;5074722;28;20027;-58
2021/06/11 02:27:29;;;;;;;2.70;1.38;;;;;;;23.22;49.63;101929.09;5074951;28;20027;-58
2021/06/11 02:29:56;;;;;;;3.22;1.60;;;;;;;23.22;49.78;101930.91;5074178;28;20025;-58
2021/06/11 02:32:21;;;;;;;2.30;1.38;;;;;;;23.22;49.56;101944.22;5074593;28;20078;-58
2021/06/11 02:34:47;;;;;;;3.63;1.60;;;;;;;23.22;49.52;101931.75;5074685;28;20032;-58
2021/06/11 02:37:12;;;;;;;3.03;1.50;;;;;;;23.22;49.61;101930.91;5073682;28;20277;-58
2021/06/11 02:39:38;;;;;;;2.67;1.40;;;;;;;23.21;49.64;101924.78;5074810;28;20055;-58
2021/06/11 02:42:07;;;;;;;3.10;1.60;;;;;;;23.15;49.69;101923.47;5074197;28;20526;-58
2021/06/11 02:44:39;;;;;;;2.88;1.60;;;;;;;23.20;49.72;101924.91;5073988;28;20111;-58
2021/06/11 02:47:17;;;;;;;3.83;1.45;;;;;;;23.20;49.60;101931.06;5074155;28;20021;-57
2021/06/11 02:50:25;;;;;;;3.13;1.60;;;;;;;23.19;49.53;101924.03;5074652;28;20028;-57
2021/06/11 02:52:54;;;;;;;3.72;1.67;;;;;;;23.18;49.56;101925.88;5060942;28;20033;-57
2021/06/11 02:55:22;;;;;;;2.88;1.50;;;;;;;23.20;49.46;101924.91;5074165;28;20020;-57
2021/06/11 02:58:12;;;;;;;3.00;1.40;;;;;;;23.17;49.73;101924.16;5073445;28;20062;-57
2021/06/11 03:00:40;;;;;;;4.35;1.60;;;;;;;23.15;49.61;101910.16;5074351;28;20024;-57
2021/06/11 03:03:24;;;;;;;3.35;1.52;;;;;;;23.17;49.59;101908.22;5073537;28;20029;-58
2021/06/11 03:05:56;;;;;;;2.58;1.30;;;;;;;23.17;49.73;101910.88;5073491;28;20031;-58
2021/06/11 03:08:26;;;;;;;3.33;1.50;;;;;;;23.17;49.40;101905.56;5073496;28;20499;-57
2021/06/11 03:10:58;;;;;;;3.15;1.67;;;;;;;23.14;49.62;101900.50;5073907;28;20128;-58
2021/06/11 03:13:27;;;;;;;3.28;1.50;;;;;;;23.16;49.49;101900.38;5072954;28;20524;-57
2021/06/11 03:15:53;;;;;;;2.95;1.58;;;;;;;23.16;49.72;101897.72;5074005;28;20036;-57
2021/06/11 03:18:36;;;;;;;3.75;1.60;;;;;;;23.15;49.58;101904.03;5072794;28;20044;-57
2021/06/11 03:21:11;;;;;;;2.60;1.40;;;;;;;23.15;49.47;101901.38;5073358;28;20537;-57
2021/06/11 03:23:48;;;;;;;2.38;1.33;;;;;;;23.14;49.48;101902.31;5073867;28;20052;-57
2021/06/11 03:26:19;;;;;;;3.22;1.50;;;;;;;23.13;49.53;101893.50;5072963;28;20099;-57
2021/06/11 03:28:55;;;;;;;3.22;1.50;;;;;;;23.15;49.42;101891.56;5073619;28;20072;-58
2021/06/11 03:31:31;;;;;;;3.10;1.58;;;;;;;23.13;49.51;101876.69;5073268;28;20494;-58
2021/06/11 03:34:04;;;;;;;2.58;1.50;;;;;;;23.13;49.42;101888.19;5072898;28;20024;-57
2021/06/11 03:36:34;;;;;;;3.22;1.40;;;;;;;23.13;49.55;101882.00;5073556;28;20043;-57
2021/06/11 03:39:04;;;;;;;2.65;1.30;;;;;;;23.13;49.37;101882.88;5073727;28;20020;-57
2021/06/11 03:41:33;;;;;;;3.00;1.58;;;;;;;23.13;49.55;101880.22;5054794;28;20063;-57
2021/06/11 03:44:00;;;;;;;2.92;1.40;;;;;;;23.11;49.42;101887.47;5073630;28;20025;-58
2021/06/11 03:46:31;;;;;;;3.47;1.55;;;;;;;23.13;49.53;101876.69;5073081;28;20025;-57
2021/06/11 03:48:58;;;;;;;2.83;1.50;;;;;;;23.12;49.57;101880.34;5072876;28;20020;-57
2021/06/11 03:51:26;;;;;;;3.95;1.45;;;;;;;23.13;49.37;101879.34;5072936;28;20036;-57
2021/06/11 03:53:53;;;;;;;3.28;1.40;;;;;;;23.12;49.56;101877.69;5072555;28;20031;-57
2021/06/11 03:56:20;;;;;;;3.88;1.80;;;;;;;23.11;49.33;101873.34;5073126;28;20036;-56
2021/06/11 03:58:47;;;;;;;2.60;1.30;;;;;;;23.12;49.45;101880.34;5073108;28;20032;-56
2021/06/11 04:01:38;;;;;;;2.97;1.42;;;;;;;23.11;49.46;101871.50;5072215;28;20056;-58
2021/06/11 04:04:03;;;;;;;2.90;1.50;;;;;;;23.10;49.38;101864.53;5072939;28;20048;-56
2021/06/11 04:06:43;;;;;;;2.92;1.58;;;;;;;23.11;49.61;101868.03;5073009;28;20059;-57
2021/06/11 04:09:16;;;;;;;3.08;1.60;;;;;;;23.11;49.41;101873.34;5072046;28;20020;-57
2021/06/11 04:11:48;;;;;;;3.13;1.50;;;;;;;23.10;49.57;101875.16;5073025;28;20044;-57
2021/06/11 04:14:26;;;;;;;2.95;1.50;;;;;;;23.10;49.47;101871.69;5072598;28;20040;-57
2021/06/11 04:16:56;;;;;;;3.70;2.05;;;;;;;23.10;49.43;101875.16;5071683;28;20051;-57
2021/06/11 04:19:29;;;;;;;3.65;1.50;;;;;;;23.10;49.59;101869.84;5072622;28;20029;-56
2021/06/11 04:22:02;;;;;;;2.97;1.40;;;;;;;23.09;49.36;101872.63;5072013;28;20194;-57
2021/06/11 04:24:33;;;;;;;3.58;1.70;;;;;;;23.06;49.49;101867.56;5072762;28;20069;-57
2021/06/11 04:26:59;;;;;;;2.38;1.30;;;;;;;23.09;49.56;101884.09;5072564;28;20012;-56
2021/06/11 04:29:27;;;;;;;3.47;1.50;;;;;;;23.10;49.64;101887.63;5071277;28;20032;-57
2021/06/11 04:31:54;;;;;;;2.58;1.40;;;;;;;23.08;49.54;101890.41;5072525;28;20055;-57
2021/06/11 04:34:19;;;;;;;2.97;1.50;;;;;;;23.08;49.46;101894.88;5072185;28;20028;-57
2021/06/11 04:36:47;;;;;;;3.40;1.60;;;;;;;23.09;49.53;101910.69;5071830;28;20021;-57
2021/06/11 04:39:15;;;;;;;2.92;1.50;;;;;;;23.10;49.56;101919.53;5072003;28;20044;-57
2021/06/11 04:41:41;;;;;;;2.50;1.33;;;;;;;23.10;49.67;101916.88;5072225;28;20088;-57
2021/06/11 04:44:07;;;;;;;3.17;1.52;;;;;;;23.09;49.79;101917.84;5071138;28;20508;-57
2021/06/11 04:46:36;;;;;;;4.28;1.70;;;;;;;23.08;49.76;101924.97;5072554;28;20017;-57
2021/06/11 04:49:04;;;;;;;3.20;1.50;;;;;;;23.09;49.65;101917.84;5071777;28;20044;-57
2021/06/11 04:51:30;;;;;;;2.97;1.63;;;;;;;23.09;49.86;101920.50;5071593;28;20118;-57
2021/06/11 04:53:55;;;;;;;2.67;1.20;;;;;;;23.09;49.59;101912.53;5072240;28;20120;-57
2021/06/11 04:56:20;;;;;;;3.23;1.67;;;;;;;23.08;49.54;101914.34;5071794;28;20060;-58
2021/06/11 04:58:51;;;;;;;2.95;1.52;;;;;;;23.08;49.84;101914.34;5071531;28;20296;-56
2021/06/11 05:01:17;;;;;;;3.53;1.40;;;;;;;23.09;49.62;101915.19;5071868;28;20025;-56
2021/06/11 05:03:43;;;;;;;2.83;1.58;;;;;;;23.08;49.57;101917.00;5071865;28;20384;-56
2021/06/11 05:06:08;;;;;;;3.63;1.60;;;;;;;23.09;50.00;101920.50;5070988;28;20024;-57
2021/06/11 05:08:36;;;;;;;2.40;1.33;;;;;;;23.07;49.65;101922.41;5071812;28;20123;-57
2021/06/11 05:11:05;;;;;;;2.95;1.58;;;;;;;23.08;49.57;101924.13;5071066;28;20044;-57
2021/06/11 05:13:30;;;;;;;4.13;1.67;;;;;;;23.08;49.74;101927.63;5071922;28;20461;-57
2021/06/11 05:15:56;;;;;;;2.75;1.52;;;;;;;23.08;49.72;101929.44;5071946;28;20081;-57
2021/06/11 05:18:25;;;;;;;3.20;1.52;;;;;;;23.08;49.70;101943.59;5070773;28;20487;-57
2021/06/11 05:20:50;;;;;;;2.22;1.30;;;;;;;23.08;49.65;101930.31;5071914;28;20376;-57
2021/06/11 05:23:17;;;;;;;3.22;1.52;;;;;;;23.08;49.64;101922.31;5071507;28;20028;-57
2021/06/11 05:25:43;;;;;;;3.90;1.70;;;;;;;23.08;49.70;101924.13;5071031;28;20341;-56
2021/06/11 05:28:10;;;;;;;3.07;1.57;;;;;;;23.09;49.70;101928.47;5075610;28;20135;-56
2021/06/11 05:30:36;;;;;;;3.10;1.50;;;;;;;23.04;49.58;101926.16;5075813;28;20384;-56
2021/06/11 05:33:02;;;;;;;2.63;1.58;;;;;;;23.06;49.77;101929.53;5074915;28;20025;-56
2021/06/11 05:35:27;;;;;;;3.00;1.40;;;;;;;23.09;49.76;101928.47;5075799;28;20031;-57
2021/06/11 05:37:56;;;;;;;3.00;1.50;;;;;;;23.09;49.91;101925.81;5075732;28;20020;-57
2021/06/11 05:40:21;;;;;;;2.47;1.40;;;;;;;23.07;49.77;101927.75;5074617;28;20020;-57
2021/06/11 05:42:49;;;;;;;3.42;1.50;;;;;;;23.09;50.08;101937.28;5075809;28;20100;-56
2021/06/11 05:45:14;;;;;;;5.22;2.30;;;;;;;23.08;50.12;101932.09;5075533;28;20035;-57
2021/06/11 05:47:40;;;;;;;4.40;2.70;;;;;;;23.07;50.19;101938.38;5075181;28;20025;-54
2021/06/11 05:50:07;;;;;;;5.75;3.03;;;;;;;23.04;50.46;101941.28;5075056;28;20380;-58
2021/06/11 05:52:33;;;;;;;6.18;3.05;;;;;;;23.00;50.68;101941.56;5075212;28;20021;-57
2021/06/11 05:54:58;;;;;;;6.45;3.08;;;;;;;22.98;50.92;101932.84;5074860;28;20123;-57
2021/06/11 05:57:23;;;;;;;6.53;3.43;;;;;;;22.98;51.19;101945.31;5075066;28;20025;-58
2021/06/11 05:59:54;;;;;;;6.13;3.20;;;;;;;22.97;51.23;101949.78;5075506;28;20419;-57
2021/06/11 06:02:20;;;;;;;5.35;3.35;;;;;;;22.96;51.75;101942.78;5074584;28;20032;-57
2021/06/11 06:04:45;;;;;;;6.90;3.78;;;;;;;22.96;51.79;101940.13;5074264;28;20499;-58
2021/06/11 06:07:10;;;;;;;5.88;3.10;;;;;;;22.96;51.71;101945.44;5074797;28;20469;-57
2021/06/11 06:09:38;;;;;;;5.57;3.05;;;;;;;22.97;51.77;101940.94;5074300;28;20598;-58
2021/06/11 06:12:04;;;;;;;5.80;3.33;;;;;;;22.97;51.85;101940.94;5074735;28;20071;-57
2021/06/11 06:14:29;;;;;;;8.15;3.47;;;;;;;22.97;51.90;101939.16;5074632;28;20480;-58
2021/06/11 06:16:55;;;;;;;7.57;3.17;;;;;;;22.98;51.95;101938.16;5075304;28;20032;-57
2021/06/11 06:19:20;;;;;;;6.00;3.15;;;;;;;22.99;52.09;101941.69;5074658;28;20271;-58
2021/06/11 06:21:45;;;;;;;7.43;3.37;;;;;;;22.99;51.81;101933.72;5074348;28;20037;-57
2021/06/11 06:24:10;;;;;;;6.70;3.45;;;;;;;23.01;51.94;101937.06;5074588;28;20305;-60
2021/06/11 06:26:36;;;;;;;6.82;3.40;;;;;;;23.02;51.94;101933.44;5075097;28;20032;-58
2021/06/11 06:29:02;;;;;;;7.65;3.58;;;;;;;23.04;52.17;101933.31;5074064;28;20395;-57
2021/06/11 06:31:27;;;;;;;8.63;3.50;;;;;;;23.04;52.25;101925.34;5075041;28;20020;-57
2021/06/11 06:33:52;;;;;;;7.40;3.05;;;;;;;23.06;52.11;101929.53;5074451;28;20036;-57
2021/06/11 06:36:17;;;;;;;7.10;3.70;;;;;;;23.08;52.28;101938.28;5073611;28;20016;-57
2021/06/11 06:38:46;;;;;;;10.77;3.38;;;;;;;23.08;52.10;101940.94;5074415;28;20107;-57
2021/06/11 06:41:12;;;;;;;7.15;3.30;;;;;;;23.09;51.92;101939.09;5074592;28;20051;-58
2021/06/11 06:43:37;;;;;;;6.25;2.80;;;;;;;23.10;51.75;101943.47;5073952;28;20453;-58
2021/06/11 06:46:05;;;;;;;7.18;3.00;;;;;;;23.10;52.47;101944.28;5073098;28;20381;-57
2021/06/11 06:48:31;;;;;;;6.45;3.13;;;;;;;23.10;52.48;101936.31;5074624;28;20029;-58
2021/06/11 06:50:58;;;;;;;6.38;3.38;;;;;;;23.12;52.99;101939.69;5073610;28;20039;-58
2021/06/11 06:53:23;;;;;;;6.10;3.47;;;;;;;23.14;52.86;101953.69;5074176;28;20078;-58
2021/06/11 06:55:49;;;;;;;8.63;3.20;;;;;;;23.13;52.77;101953.81;5074600;28;20021;-58
2021/06/11 06:58:17;;;;;;;8.05;3.72;;;;;;;23.10;52.76;101954.09;5073474;28;20020;-59
2021/06/11 07:00:43;;;;;;;8.02;3.75;;;;;;;23.10;52.80;101949.63;5074360;28;20024;-60
2021/06/11 07:03:08;;;;;;;6.57;3.50;;;;;;;23.12;52.97;101944.16;5074179;28;20461;-59
2021/06/11 07:05:33;;;;;;;8.80;3.60;;;;;;;23.10;52.95;101944.28;5074051;28;20028;-59
2021/06/11 07:07:59;;;;;;;7.55;3.63;;;;;;;23.12;53.29;101931.69;5074683;28;20748;-57
2021/06/11 07:10:25;;;;;;;6.82;3.10;;;;;;;23.14;53.22;101932.41;5074113;28;20448;-57
2021/06/11 07:12:50;;;;;;;6.80;2.88;;;;;;;23.15;53.27;101926.13;5073425;28;20436;-58
2021/06/11 07:15:16;;;;;;;6.63;3.20;;;;;;;23.19;53.18;101932.00;5073946;28;20059;-59
2021/06/11 07:17:55;;;;;;;6.63;3.42;;;;;;;23.21;53.74;101931.88;5074174;28;20020;-59
2021/06/11 07:20:21;;;;;;;6.88;3.00;;;;;;;23.21;53.72;101929.22;5074896;28;20025;-58
2021/06/11 07:22:46;;;;;;;8.07;3.15;;;;;;;23.25;53.21;101933.31;5074866;28;20025;-59
2021/06/11 07:25:20;;;;;;;6.53;3.17;;;;;;;23.26;53.24;101935.00;5073586;28;20206;-59
2021/06/11 07:27:45;;;;;;;5.90;2.78;;;;;;;23.27;53.06;101937.50;5075157;28;20277;-58
2021/06/11 07:30:11;;;;;;;6.35;2.50;;;;;;;23.30;52.87;101931.09;5074547;28;20490;-58
2021/06/11 07:32:43;;;;;;;4.82;2.38;;;;;;;23.30;52.55;101942.56;5075336;28;20025;-60
2021/06/11 07:35:13;;;;;;;5.78;2.45;;;;;;;23.27;52.69;101928.69;5077357;28;20461;-58
2021/06/11 07:37:38;;;;;;;6.00;2.10;;;;;;;23.33;52.79;101941.47;5076954;28;20085;-59
2021/06/11 07:40:05;;;;;;;8.88;2.50;;;;;;;23.35;52.91;101950.16;5074744;28;20028;-59
2021/06/11 07:42:30;;;;;;;5.20;2.25;;;;;;;23.38;52.82;101957.03;5073197;28;20020;-59
2021/06/11 07:44:56;;;;;;;4.30;1.90;;;;;;;23.39;52.43;101950.75;5073073;28;20035;-59
2021/06/11 07:47:24;;;;;;;6.15;2.53;;;;;;;23.35;52.28;101953.66;5072119;28;20025;-58
2021/06/11 07:49:49;;;;;;;6.05;2.65;;;;;;;23.32;52.48;101945.94;5072215;28;20038;-61
2021/06/11 07:52:15;;;;;;;5.78;2.17;;;;;;;23.31;52.51;101954.06;5073359;28;20111;-58
2021/06/11 07:54:42;;;;;;;4.43;1.98;;;;;;;23.35;52.53;101952.81;5072912;28;20024;-59
2021/06/11 07:57:08;;;;;;;5.43;2.08;;;;;;;23.35;52.63;101952.81;5072760;28;20460;-58
2021/06/11 07:59:34;;;;;;;4.47;1.80;;;;;;;23.39;52.46;101956.91;5073063;28;20035;-59
2021/06/11 08:01:59;;;;;;;6.43;2.45;;;;;;;23.41;52.90;101952.28;5072431;28;20099;-58
2021/06/11 08:04:33;;;;;;;4.63;2.30;;;;;;;23.44;52.80;101945.88;5073110;28;20035;-58
2021/06/11 08:06:59;;;;;;;5.82;2.25;;;;;;;23.45;52.62;101931.56;5072114;28;20047;-58
2021/06/11 08:09:28;;;;;;;3.78;2.00;;;;;;;23.45;52.75;101945.72;5072502;28;20024;-58
2021/06/11 08:11:54;;;;;;;5.43;2.60;;;;;;;23.45;52.74;101948.38;5071360;28;20403;-58
2021/06/11 08:14:19;;;;;;;4.68;2.80;;;;;;;23.42;52.41;101942.50;5071616;28;20027;-58
2021/06/11 08:16:44;;;;;;;4.60;2.77;;;;;;;23.39;52.62;101940.09;5072938;28;20016;-58
2021/06/11 08:19:09;;;;;;;5.20;2.95;;;;;;;23.35;52.32;101942.16;5072074;28;20301;-58
2021/06/11 08:21:35;;;;;;;6.33;3.30;;;;;;;23.30;53.00;101945.22;5072007;28;20115;-58
2021/06/11 08:24:00;;;;;;;5.05;2.88;;;;;;;23.27;52.82;101942.00;5075709;28;20322;-59
2021/06/11 08:26:28;;;;;;;4.63;2.42;;;;;;;23.25;52.66;101942.13;5076523;28;20025;-59
2021/06/11 08:28:53;;;;;;;4.40;2.50;;;;;;;23.25;52.78;101949.28;5076657;28;20085;-58
2021/06/11 08:31:19;;;;;;;5.15;3.22;;;;;;;23.23;52.89;101944.09;5072602;28;20036;-58
2021/06/11 08:33:46;;;;;;;5.82;2.90;;;;;;;23.23;53.12;101945.91;5073703;28;20070;-58
2021/06/11 08:36:11;;;;;;;6.35;3.60;;;;;;;23.23;53.38;101956.53;5072832;28;20090;-59
2021/06/11 08:38:46;;;;;;;4.88;3.13;;;;;;;23.21;53.29;101954.03;5073798;28;20029;-58
2021/06/11 08:41:13;;;;;;;6.05;3.30;;;;;;;23.25;53.23;101954.59;5074079;28;20020;-58
2021/06/11 08:43:43;;;;;;;7.32;4.00;;;;;;;23.24;53.35;101955.56;5072624;28;20115;-57
2021/06/11 08:46:11;;;;;;;6.63;4.45;;;;;;;23.19;53.29;101945.31;5072181;28;20384;-58
2021/06/11 08:48:39;;;;;;;7.88;5.57;;;;;;;23.22;53.38;101954.84;5072398;28;20153;-58
2021/06/11 08:51:08;;;;;;;8.50;4.82;;;;;;;23.23;53.25;101952.06;5071121;28;20055;-58
2021/06/11 08:53:34;;;;;;;6.65;4.50;;;;;;;23.26;53.49;101949.13;5072200;28;20051;-58
2021/06/11 08:55:59;;;;;;;7.07;4.93;;;;;;;23.30;53.22;101947.88;5072033;28;20075;-58
2021/06/11 08:58:24;;;;;;;7.87;4.60;;;;;;;23.31;53.31;101951.41;5071249;28;20486;-57
2021/06/11 09:00:50;;;;;;;7.72;4.70;;;;;;;23.32;53.20;101947.75;5071870;28;20284;-57
2021/06/11 09:03:19;;;;;;;7.75;4.70;;;;;;;23.35;53.04;101936.84;5071089;28;20130;-58
2021/06/11 09:06:05;;;;;;;9.18;4.88;;;;;;;23.38;52.94;101935.75;5072053;28;20031;-58
2021/06/11 09:08:31;;;;;;;8.52;5.22;;;;;;;23.32;52.74;101937.13;5071951;28;20036;-58
2021/06/11 09:11:18;;;;;;;10.55;5.28;;;;;;;23.40;52.81;101936.44;5071049;28;20053;-58
2021/06/11 09:14:08;;;;;;;9.23;5.90;;;;;;;23.42;52.77;101939.84;5038599;28;20045;-58
2021/06/11 09:16:44;;;;;;;7.90;4.95;;;;;;;23.43;52.67;101939.72;5071886;28;20020;-58
2021/06/11 09:19:18;;;;;;;9.82;4.75;;;;;;;23.46;52.82;101936.75;5071079;28;20081;-59
2021/06/11 09:21:46;;;;;;;8.43;5.40;;;;;;;23.44;52.63;101937.88;5072141;28;20036;-59
2021/06/11 09:26:58;;;;;;;9.95;5.28;;;;;;;23.47;52.49;101943.78;5071966;28;20373;-58
2021/06/11 09:29:34;;;;;;;8.63;5.20;;;;;;;23.49;52.52;101936.50;5071468;28;20061;-59
2021/06/11 09:32:12;;;;;;;10.57;6.20;;;;;;;23.49;52.34;101936.50;5070903;28;20452;-59
2021/06/11 09:34:38;;;;;;;8.85;6.40;;;;;;;23.48;52.57;101933.97;5071741;28;20079;-59
2021/06/11 09:37:12;;;;;;;7.90;5.32;;;;;;;23.50;52.62;101935.53;5071396;28;20016;-59
2021/06/11 09:40:05;;;;;;;10.13;5.93;;;;;;;23.52;52.44;101933.56;5071195;28;20024;-59
2021/06/11 09:42:33;;;;;;;8.93;5.60;;;;;;;23.54;52.38;101928.97;5071241;28;20148;-58
2021/06/11 09:45:10;;;;;;;8.40;5.18;;;;;;;23.55;52.26;101935.97;5071752;28;20024;-58
2021/06/11 09:47:37;;;;;;;9.23;5.53;;;;;;;23.55;52.37;101922.66;5071010;28;20063;-58
2021/06/11 09:50:26;;;;;;;8.23;4.65;;;;;;;23.56;52.29;101923.50;5071230;28;20032;-60
2021/06/11 09:53:06;;;;;;;8.60;4.82;;;;;;;23.58;52.49;101915.41;5070835;28;20031;-60
2021/06/11 09:55:53;;;;;;;10.90;5.78;;;;;;;23.61;52.27;101920.44;5074509;28;20028;-58
2021/06/11 09:58:31;;;;;;;7.43;4.85;;;;;;;23.63;52.01;101924.66;5075572;28;20028;-58
2021/06/11 10:01:10;;;;;;;9.05;5.10;;;;;;;23.66;52.42;101928.88;5071357;28;20021;-60
2021/06/11 10:03:46;;;;;;;9.43;4.85;;;;;;;23.67;52.47;101918.09;5071606;28;20027;-59
2021/06/11 10:06:14;;;;;;;8.15;4.93;;;;;;;23.68;52.18;101919.75;5071513;28;20024;-59
2021/06/11 10:08:41;;;;;;;8.43;4.57;;;;;;;23.70;52.12;101928.47;5070948;28;20021;-58
2021/06/11 10:11:10;;;;;;;7.88;4.82;;;;;;;23.70;51.84;101922.28;5070865;28;20045;-59
2021/06/11 10:13:36;;;;;;;9.80;4.95;;;;;;;23.68;52.16;101913.59;5072067;28;20071;-59
2021/06/11 10:16:05;;;;;;;8.40;4.68;;;;;;;23.68;52.30;101916.25;5074749;28;20077;-59
2021/06/11 10:18:35;;;;;;;8.00;4.80;;;;;;;23.69;51.82;101915.28;5075268;28;20103;-58
2021/06/11 10:21:01;;;;;;;9.68;5.57;;;;;;;23.69;52.22;101916.13;5074348;28;20025;-60
2021/06/11 10:23:28;;;;;;;8.63;5.10;;;;;;;23.68;52.02;101916.25;5074828;28;20499;-60
2021/06/11 10:25:55;;;;;;;9.05;5.70;;;;;;;23.69;51.73;101916.13;5074861;28;20393;-60
2021/06/11 10:28:24;;;;;;;9.32;5.57;;;;;;;23.69;51.94;101913.47;5073988;28;20077;-59
2021/06/11 10:30:54;;;;;;;8.27;5.30;;;;;;;23.69;52.17;101905.47;5074813;28;20086;-60
2021/06/11 10:33:46;;;;;;;8.90;5.25;;;;;;;23.71;51.74;101910.66;5074534;28;20020;-58
2021/06/11 10:36:30;;;;;;;10.15;5.47;;;;;;;23.70;51.68;101911.63;5073428;28;20021;-59
2021/06/11 10:39:11;;;;;;;;;;;;;;;23.69;51.80;101907.31;5075108;28;20060;-58
2021/06/11 10:42:05;;;;;;;8.95;5.07;;;;;;;23.71;51.88;101906.16;5074373;28;19923;-59
2021/06/11 10:44:54;;;;;;;8.00;5.18;;;;;;;23.74;52.18;101899.75;5072011;28;20040;-58
2021/06/11 10:47:19;;;;;;;8.93;5.32;;;;;;;23.74;52.17;101894.44;5074468;28;20388;-58
2021/06/11 10:50:00;;;;;;;9.80;5.63;;;;;;;23.77;51.98;101896.81;5073885;28;20029;-58
2021/06/11 10:52:52;;;;;;;8.93;5.22;;;;;;;23.79;52.10;101894.00;5074297;28;20036;-58
2021/06/11 10:55:17;;;;;;;9.20;5.47;;;;;;;23.82;52.13;101891.09;5074528;28;20479;-58
2021/06/11 10:57:45;;;;;;;8.55;5.32;;;;;;;23.83;52.14;101883.00;5056167;28;20028;-59
2021/06/11 11:00:34;;;;;;;9.10;4.88;;;;;;;23.89;52.42;101887.78;5074336;28;20050;-59
2021/06/11 11:03:02;;;;;;;7.45;4.75;;;;;;;23.89;52.40;101887.78;5073789;28;20357;-59
2021/06/11 11:05:28;;;;;;;9.82;4.55;;;;;;;23.86;52.19;101888.03;5074766;28;20050;-58
2021/06/11 11:07:56;;;;;;;9.07;5.15;;;;;;;23.84;52.20;101894.47;5074428;28;20092;-57
2021/06/11 11:10:39;;;;;;;9.30;5.30;;;;;;;23.79;52.17;101889.53;5073170;28;20467;-58
2021/06/11 11:13:08;;;;;;;9.90;5.68;;;;;;;23.79;52.17;101884.19;5074162;28;20097;-57
2021/06/11 11:15:39;;;;;;;7.97;4.93;;;;;;;23.79;52.04;101888.69;5074251;28;20047;-58
2021/06/11 11:18:06;;;;;;;7.95;4.80;;;;;;;23.82;52.01;101886.59;5073004;28;20345;-58
2021/06/11 11:20:34;;;;;;;8.05;4.80;;;;;;;23.85;51.98;101883.69;5074021;28;20021;-58
2021/06/11 11:23:27;;;;;;;10.65;5.32;;;;;;;23.82;52.17;101878.59;5073920;28;20321;-58
2021/06/11 11:25:53;;;;;;;10.43;5.35;;;;;;;23.86;51.87;101877.41;5069368;28;20028;-57
2021/06/11 11:28:19;;;;;;;9.32;5.13;;;;;;;23.85;51.81;101882.84;5073479;28;20036;-57
2021/06/11 11:30:47;;;;;;;10.70;5.30;;;;;;;23.86;51.87;101876.53;5073429;28;20028;-58
2021/06/11 11:33:14;;;;;;;11.13;5.32;;;;;;;23.84;52.08;101871.34;5072876;28;20027;-58
2021/06/11 11:35:41;;;;;;;8.38;4.97;;;;;;;23.82;52.12;101870.63;5073704;28;20017;-57
2021/06/11 11:38:09;;;;;;;9.05;4.85;;;;;;;23.83;51.93;101874.13;5072479;28;20364;-57